Time;durP1;ratioP1;P1;durP2;ratioP2;P2;SDS_P1;SDS_P2;PMS_P1;PMS_P2;Temp;Humidity;BMP_temperature;BMP_pressure;BME280_temperature;BME280_humidity;BME280_pressure;Samples;Min_cycle;Max_cycle;Signal;HPM_P1;HPM_P2
2023/05/23 00:01:21;;;;;;;19.30;8.45;;;13.70;99.90;;;;;;5072749;28;20039;-65
2023/05/23 00:03:48;;;;;;;17.20;8.05;;;14.10;99.90;;;;;;5072769;28;20506;-64
2023/05/23 00:06:13;;;;;;;17.52;8.20;;;13.70;99.90;;;;;;5072783;28;20047;-64
2023/05/23 00:08:39;;;;;;;12.68;7.25;;;13.70;99.90;;;;;;5072769;28;20127;-65
2023/05/23 00:11:05;;;;;;;22.67;8.23;;;14.20;99.90;;;;;;5072333;28;20408;-65
2023/05/23 00:13:33;;;;;;;18.30;8.05;;;13.70;99.90;;;;;;5072408;28;20488;-66
2023/05/23 00:15:59;;;;;;;17.77;7.57;;;13.70;99.90;;;;;;5072296;28;20396;-64
2023/05/23 00:18:25;;;;;;;16.50;8.13;;;13.70;99.90;;;;;;5054408;28;20514;-64
2023/05/23 00:20:50;;;;;;;16.73;7.25;;;13.70;99.90;;;;;;5072679;28;20037;-65
2023/05/23 00:23:21;;;;;;;16.85;7.28;;;13.70;99.90;;;;;;5072591;28;20037;-64
2023/05/23 00:25:52;;;;;;;14.10;6.93;;;13.90;99.90;;;;;;5072553;28;20128;-64
2023/05/23 00:28:18;;;;;;;13.88;6.88;;;13.70;99.90;;;;;;5072547;28;20040;-65
2023/05/23 00:30:44;;;;;;;12.82;6.28;;;13.80;99.90;;;;;;5072480;28;20378;-64
2023/05/23 00:33:12;;;;;;;14.20;6.60;;;13.80;99.90;;;;;;5054291;28;20116;-64
2023/05/23 00:35:38;;;;;;;10.27;6.28;;;13.80;99.90;;;;;;5055020;28;20195;-65
2023/05/23 00:38:06;;;;;;;18.30;7.28;;;13.80;99.90;;;;;;5075995;28;20115;-64
2023/05/23 00:40:32;;;;;;;11.82;6.80;;;13.80;99.90;;;;;;5076207;28;20035;-64
2023/05/23 00:42:58;;;;;;;12.88;6.93;;;13.90;99.90;;;;;;5076170;28;20041;-64
2023/05/23 00:45:24;;;;;;;15.80;7.15;;;13.80;99.90;;;;;;5074530;28;20135;-65
2023/05/23 00:47:51;;;;;;;12.65;6.53;;;13.80;99.90;;;;;;5076134;28;20078;-64
2023/05/23 00:50:18;;;;;;;15.63;7.28;;;13.90;99.90;;;;;;5075691;28;20049;-64
2023/05/23 00:52:46;;;;;;;17.38;6.03;;;13.80;99.90;;;;;;5075694;28;20059;-64
2023/05/23 00:55:13;;;;;;;8.32;5.43;;;13.80;99.90;;;;;;5075519;28;20094;-64
2023/05/23 00:57:40;;;;;;;11.77;6.57;;;13.80;99.90;;;;;;5075859;28;20036;-64
2023/05/23 01:00:09;;;;;;;9.80;5.68;;;13.80;99.90;;;;;;5075818;28;20040;-64
2023/05/23 01:02:42;;;;;;;10.07;4.97;;;13.80;99.90;;;;;;5075753;28;20373;-64
2023/05/23 01:05:10;;;;;;;12.52;5.40;;;13.80;99.90;;;;;;5075806;28;20064;-65
2023/05/23 01:07:35;;;;;;;11.65;5.03;;;13.80;99.90;;;;;;5057818;28;20055;-68
2023/05/23 01:10:03;;;;;;;8.10;4.45;;;13.80;99.90;;;;;;5075656;28;20040;-65
2023/05/23 01:12:56;;;;;;;7.70;4.72;;;13.90;99.90;;;;;;5075326;28;20064;-65
2023/05/23 01:15:30;;;;;;;12.40;4.53;;;13.90;99.90;;;;;;5075528;28;20377;-65
2023/05/23 01:18:06;;;;;;;11.80;5.35;;;13.90;99.90;;;;;;5075596;28;20123;-64
2023/05/23 01:20:35;;;;;;;11.10;5.20;;;14.40;99.90;;;;;;5074248;28;20085;-64
2023/05/23 01:23:23;;;;;;;14.43;6.78;;;13.80;99.90;;;;;;5075504;28;20036;-65
2023/05/23 01:26:21;;;;;;;9.75;5.53;;;13.80;99.90;;;;;;5075409;28;20040;-64
2023/05/23 01:28:52;;;;;;;9.60;5.78;;;13.80;99.90;;;;;;5075432;28;20048;-64
2023/05/23 01:31:18;;;;;;;12.32;6.55;;;13.80;99.90;;;;;;5075315;28;20048;-64
2023/05/23 01:33:48;;;;;;;9.93;6.25;;;13.80;99.90;;;;;;5075297;28;20055;-65
2023/05/23 01:36:14;;;;;;;14.05;6.22;;;13.80;99.90;;;;;;5056948;28;20102;-65
2023/05/23 01:38:40;;;;;;;9.93;6.20;;;14.50;99.90;;;;;;5075134;28;20040;-64
2023/05/23 01:41:06;;;;;;;12.05;6.07;;;13.70;99.90;;;;;;5075209;28;20035;-65
2023/05/23 01:43:32;;;;;;;10.85;5.53;;;13.70;99.90;;;;;;5075125;28;20039;-66
2023/05/23 01:45:59;;;;;;;10.15;5.82;;;13.70;99.90;;;;;;5075056;28;20397;-64
2023/05/23 01:48:26;;;;;;;7.03;4.93;;;13.60;99.90;;;;;;5073884;28;20476;-64
2023/05/23 01:50:52;;;;;;;9.63;4.95;;;13.60;99.90;;;;;;5075024;28;20125;-64
2023/05/23 01:53:23;;;;;;;10.45;5.28;;;13.60;99.90;;;;;;5074613;28;20036;-64
2023/05/23 01:55:50;;;;;;;11.15;5.00;;;13.50;99.90;;;;;;5074806;28;20029;-64
2023/05/23 01:58:15;;;;;;;8.52;4.03;;;13.60;99.90;;;;;;5074464;28;20051;-64
2023/05/23 02:00:41;;;;;;;8.02;4.35;;;13.50;99.90;;;;;;5056838;28;20032;-64
2023/05/23 02:03:07;;;;;;;5.68;4.30;;;13.50;99.90;;;;;;5056945;28;20044;-65
2023/05/23 02:05:32;;;;;;;7.95;3.83;;;13.40;99.90;;;;;;5074692;28;20070;-65
2023/05/23 02:07:58;;;;;;;6.15;3.67;;;13.50;99.90;;;;;;5056358;28;20070;-64
2023/05/23 02:10:24;;;;;;;9.02;4.22;;;13.50;99.90;;;;;;5074525;28;20087;-64
2023/05/23 02:12:49;;;;;;;9.98;3.40;;;13.50;99.90;;;;;;5056578;28;20053;-64
2023/05/23 02:15:16;;;;;;;10.25;3.20;;;13.40;99.90;;;;;;5074355;28;20048;-64
2023/05/23 02:17:42;;;;;;;6.63;3.47;;;13.40;99.90;;;;;;5074196;28;20072;-64
2023/05/23 02:20:08;;;;;;;6.20;3.38;;;13.30;99.90;;;;;;5074284;28;20401;-64
2023/05/23 02:22:34;;;;;;;7.72;3.67;;;13.30;99.90;;;;;;5074330;28;20040;-64
2023/05/23 02:25:00;;;;;;;7.15;3.05;;;13.30;99.90;;;;;;5056120;28;20044;-64
2023/05/23 02:27:26;;;;;;;7.43;3.40;;;13.20;99.90;;;;;;5072631;28;20105;-66
2023/05/23 02:29:52;;;;;;;10.68;3.58;;;13.20;99.90;;;;;;5073929;28;20121;-64
2023/05/23 02:32:17;;;;;;;19.55;3.45;;;13.20;99.90;;;;;;5074094;28;20431;-64
2023/05/23 02:34:45;;;;;;;6.60;3.40;;;13.20;99.90;;;;;;5073940;28;20049;-65
2023/05/23 02:37:13;;;;;;;8.02;3.55;;;13.10;99.90;;;;;;5073968;28;20032;-64
2023/05/23 02:39:39;;;;;;;6.97;3.50;;;13.10;99.90;;;;;;5056002;28;20033;-64
2023/05/23 02:42:05;;;;;;;6.63;3.85;;;13.00;99.90;;;;;;5073585;28;20106;-64
2023/05/23 02:44:30;;;;;;;6.97;3.38;;;13.00;99.90;;;;;;5073525;28;20123;-65
2023/05/23 02:46:56;;;;;;;5.10;3.28;;;13.00;99.90;;;;;;5073811;28;20090;-64
2023/05/23 02:49:21;;;;;;;10.88;3.20;;;13.30;99.90;;;;;;5073675;28;20040;-64
2023/05/23 02:51:47;;;;;;;8.15;3.47;;;12.90;99.90;;;;;;5073717;28;20459;-64
2023/05/23 02:54:13;;;;;;;8.70;3.20;;;12.90;99.90;;;;;;5073542;28;20043;-64
2023/05/23 02:56:38;;;;;;;9.18;3.88;;;12.90;99.90;;;;;;5073616;28;20028;-64
2023/05/23 02:59:04;;;;;;;5.90;3.00;;;12.90;99.90;;;;;;5072891;28;20119;-64
2023/05/23 03:01:30;;;;;;;7.68;2.88;;;12.80;99.90;;;;;;5073133;28;20123;-64
2023/05/23 03:03:56;;;;;;;4.82;2.92;;;12.80;99.90;;;;;;5073108;28;20047;-64
2023/05/23 03:06:21;;;;;;;4.80;2.35;;;13.40;99.90;;;;;;5073417;28;20040;-64
2023/05/23 03:08:47;;;;;;;4.35;2.67;;;12.80;99.90;;;;;;5073041;28;20036;-64
2023/05/23 03:11:13;;;;;;;7.25;2.50;;;13.40;99.90;;;;;;5073108;28;20135;-65
2023/05/23 03:13:38;;;;;;;7.22;2.35;;;12.70;99.90;;;;;;5072128;28;20083;-64
2023/05/23 03:16:04;;;;;;;10.48;2.22;;;12.70;99.90;;;;;;5073231;28;20393;-64
2023/05/23 03:18:29;;;;;;;5.35;2.55;;;12.60;99.90;;;;;;5072958;28;20044;-64
2023/05/23 03:20:55;;;;;;;4.93;2.22;;;12.60;99.90;;;;;;5072874;28;20036;-64
2023/05/23 03:23:21;;;;;;;4.93;2.25;;;12.50;99.90;;;;;;5055315;28;20036;-64
2023/05/23 03:25:46;;;;;;;7.60;2.20;;;12.50;99.90;;;;;;5055010;28;20132;-64
2023/05/23 03:28:12;;;;;;;5.80;2.80;;;13.20;99.90;;;;;;5073252;28;20395;-64
2023/05/23 03:30:37;;;;;;;8.65;2.88;;;12.50;99.90;;;;;;5072851;28;20040;-64
2023/05/23 03:33:03;;;;;;;7.22;2.70;;;12.40;99.90;;;;;;5072840;28;20044;-64
2023/05/23 03:35:29;;;;;;;7.47;3.33;;;12.30;99.90;;;;;;5072965;28;20051;-64
2023/05/23 03:37:54;;;;;;;7.97;2.45;;;13.10;99.90;;;;;;5072698;28;20040;-64
2023/05/23 03:40:20;;;;;;;6.20;2.67;;;12.30;99.90;;;;;;5054937;28;20032;-64
2023/05/23 03:42:47;;;;;;;9.55;3.25;;;12.30;99.90;;;;;;5073014;28;20036;-64
2023/05/23 03:45:13;;;;;;;11.80;3.83;;;12.30;99.90;;;;;;5072963;28;20091;-64
2023/05/23 03:47:38;;;;;;;7.80;3.03;;;12.20;99.90;;;;;;5072750;28;20044;-64
2023/05/23 03:50:05;;;;;;;6.70;3.40;;;12.20;99.90;;;;;;5072949;28;20040;-64
2023/05/23 03:52:30;;;;;;;11.15;3.55;;;12.20;99.90;;;;;;5054956;28;20081;-64
2023/05/23 03:54:56;;;;;;;5.82;3.35;;;12.40;99.90;;;;;;5072576;28;20045;-64
2023/05/23 03:57:21;;;;;;;7.07;2.97;;;12.20;99.90;;;;;;5072553;28;20504;-64
2023/05/23 03:59:47;;;;;;;8.43;3.28;;;12.20;99.90;;;;;;5054636;28;20037;-64
2023/05/23 04:02:13;;;;;;;7.03;2.83;;;12.30;99.90;;;;;;5054826;28;20511;-64
2023/05/23 04:04:38;;;;;;;4.85;2.47;;;12.50;99.90;;;;;;5054658;28;20485;-64
2023/05/23 04:07:04;;;;;;;7.55;2.72;;;12.70;99.90;;;;;;5072773;28;20036;-64
2023/05/23 04:09:30;;;;;;;9.32;3.40;;;12.60;99.90;;;;;;5072436;28;20081;-64
2023/05/23 04:11:57;;;;;;;9.50;2.92;;;12.30;99.90;;;;;;5057599;28;20055;-64
2023/05/23 04:14:26;;;;;;;4.63;2.22;;;12.30;99.90;;;;;;5076690;28;20400;-64
2023/05/23 04:16:51;;;;;;;7.45;2.10;;;12.20;99.90;;;;;;5076786;28;20455;-64
2023/05/23 04:19:17;;;;;;;3.95;2.10;;;12.20;99.90;;;;;;5076607;28;20115;-64
2023/05/23 04:21:43;;;;;;;14.70;2.75;;;12.20;99.90;;;;;;5076704;28;20181;-64
2023/05/23 04:24:08;;;;;;;7.95;2.53;;;12.20;99.90;;;;;;5076601;28;20090;-64
2023/05/23 04:26:35;;;;;;;4.72;2.53;;;12.20;99.90;;;;;;5076259;28;20381;-64
2023/05/23 04:29:02;;;;;;;4.97;2.28;;;12.20;99.90;;;;;;5076524;28;20453;-64
2023/05/23 04:31:28;;;;;;;7.05;2.10;;;12.20;99.90;;;;;;5058380;28;20070;-64
2023/05/23 04:33:53;;;;;;;4.53;2.03;;;12.20;99.90;;;;;;5076153;28;20137;-64
2023/05/23 04:36:19;;;;;;;6.70;2.17;;;12.10;99.90;;;;;;5058444;28;20040;-64
2023/05/23 04:38:44;;;;;;;3.78;1.83;;;12.30;99.90;;;;;;5058173;28;20044;-64
2023/05/23 04:41:10;;;;;;;7.97;2.60;;;12.30;99.90;;;;;;5058293;28;20060;-65
2023/05/23 04:43:41;;;;;;;8.75;2.53;;;12.10;99.90;;;;;;5076147;28;20039;-64
2023/05/23 04:46:10;;;;;;;5.78;2.30;;;12.20;99.90;;;;;;5076154;28;20036;-64
2023/05/23 04:48:37;;;;;;;4.68;1.98;;;12.10;99.90;;;;;;5075859;28;20044;-64
2023/05/23 04:51:07;;;;;;;4.82;2.22;;;12.10;99.90;;;;;;5057879;28;20055;-65
2023/05/23 04:53:33;;;;;;;6.25;2.00;;;12.10;99.90;;;;;;5076081;28;20048;-64
2023/05/23 04:55:59;;;;;;;2.72;1.67;;;12.10;99.90;;;;;;5075944;28;20149;-64
2023/05/23 04:58:25;;;;;;;3.88;1.75;;;12.10;99.90;;;;;;5075953;28;20045;-64
2023/05/23 05:00:50;;;;;;;4.82;1.80;;;12.70;99.90;;;;;;5075555;28;20488;-64
2023/05/23 05:03:16;;;;;;;3.65;1.48;;;12.10;99.90;;;;;;5075801;28;20075;-65
2023/05/23 05:05:42;;;;;;;3.22;1.73;;;12.10;99.90;;;;;;5075802;28;20044;-64
2023/05/23 05:08:07;;;;;;;7.25;1.63;;;12.10;99.90;;;;;;5075455;28;20508;-64
2023/05/23 05:10:33;;;;;;;3.65;1.50;;;12.10;99.90;;;;;;5075703;28;20036;-64
2023/05/23 05:12:58;;;;;;;9.55;1.85;;;11.70;99.90;;;;;;5057270;28;20194;-64
2023/05/23 05:15:24;;;;;;;5.68;1.98;;;12.10;99.90;;;;;;5075520;28;20051;-64
2023/05/23 05:17:50;;;;;;;9.00;1.92;;;12.00;99.90;;;;;;5075561;28;20073;-64
2023/05/23 05:20:16;;;;;;;5.47;1.83;;;12.00;99.90;;;;;;5075232;28;20036;-64
2023/05/23 05:22:42;;;;;;;5.85;1.63;;;12.00;99.90;;;;;;5075070;28;20499;-64
2023/05/23 05:25:09;;;;;;;4.35;1.73;;;12.00;99.90;;;;;;5075119;28;20047;-66
2023/05/23 05:27:36;;;;;;;7.88;2.17;;;11.90;99.90;;;;;;5075431;28;20044;-68
2023/05/23 05:30:07;;;;;;;6.32;1.75;;;11.90;99.90;;;;;;5075053;28;20123;-64
2023/05/23 05:32:33;;;;;;;4.03;2.10;;;11.90;99.90;;;;;;5057301;28;20064;-65
2023/05/23 05:35:00;;;;;;;4.28;1.77;;;11.90;99.90;;;;;;5056989;28;20049;-67
2023/05/23 05:37:26;;;;;;;5.82;2.50;;;12.10;99.90;;;;;;5075206;28;20032;-65
2023/05/23 05:39:53;;;;;;;4.57;1.80;;;11.90;99.90;;;;;;5075205;28;20103;-65
2023/05/23 05:42:21;;;;;;;3.63;1.95;;;11.90;99.90;;;;;;5075129;28;20047;-66
2023/05/23 05:44:48;;;;;;;3.78;2.03;;;11.90;99.90;;;;;;5075058;28;20142;-65
2023/05/23 05:47:14;;;;;;;5.20;2.10;;;11.80;99.90;;;;;;5074693;28;20048;-65
2023/05/23 05:49:40;;;;;;;13.40;2.50;;;11.80;99.90;;;;;;5074635;28;20075;-67
2023/05/23 05:52:07;;;;;;;14.15;2.53;;;11.70;99.90;;;;;;5074656;28;20079;-65
2023/05/23 05:54:32;;;;;;;13.40;3.08;;;11.70;99.90;;;;;;5074780;28;20044;-65
2023/05/23 05:56:58;;;;;;;4.60;2.15;;;11.60;99.90;;;;;;5056785;28;20036;-69
2023/05/23 05:59:23;;;;;;;6.82;2.63;;;11.60;99.90;;;;;;5056590;28;20075;-67
2023/05/23 06:01:50;;;;;;;7.80;2.55;;;11.60;99.90;;;;;;5074565;28;20472;-65
2023/05/23 06:04:16;;;;;;;6.55;2.22;;;11.60;99.90;;;;;;5074706;28;20062;-65
2023/05/23 06:06:42;;;;;;;8.38;2.35;;;12.00;99.90;;;;;;5074714;28;20118;-65
2023/05/23 06:09:09;;;;;;;6.07;2.00;;;11.60;99.90;;;;;;5074580;28;20080;-65
2023/05/23 06:11:38;;;;;;;4.05;2.10;;;11.60;99.90;;;;;;5056280;28;20113;-68
2023/05/23 06:14:03;;;;;;;5.18;2.15;;;11.50;99.90;;;;;;5056629;28;20045;-65
2023/05/23 06:16:29;;;;;;;6.55;2.08;;;11.50;99.90;;;;;;5074335;28;20062;-65
2023/05/23 06:18:55;;;;;;;6.45;2.58;;;11.50;99.90;;;;;;5056203;28;20051;-64
2023/05/23 06:21:20;;;;;;;3.83;1.92;;;11.50;99.90;;;;;;5056468;28;20041;-64
2023/05/23 06:23:46;;;;;;;9.50;2.60;;;11.50;99.90;;;;;;5074356;28;20094;-64
2023/05/23 06:26:11;;;;;;;5.45;2.30;;;11.50;99.90;;;;;;5056100;28;20477;-64
2023/05/23 06:28:40;;;;;;;14.35;2.45;;;11.50;99.90;;;;;;5074227;28;20040;-64
2023/05/23 06:31:08;;;;;;;5.65;1.98;;;11.50;99.90;;;;;;5074122;28;20124;-64
2023/05/23 06:33:34;;;;;;;1.92;1.45;;;11.40;99.90;;;;;;5073445;28;20044;-64
2023/05/23 06:36:00;;;;;;;3.13;1.60;;;11.50;99.90;;;;;;5074012;28;20043;-65
2023/05/23 06:38:28;;;;;;;3.00;1.50;;;11.40;99.90;;;;;;5074010;28;20361;-65
2023/05/23 06:40:54;;;;;;;8.35;1.80;;;12.40;99.90;;;;;;5073656;28;20080;-65
2023/05/23 06:43:19;;;;;;;4.45;1.73;;;11.50;99.90;;;;;;5073680;28;20080;-65
2023/05/23 06:45:49;;;;;;;4.75;1.58;;;11.50;99.90;;;;;;5073843;28;20052;-65
2023/05/23 06:48:14;;;;;;;5.30;1.48;;;11.20;96.90;;;;;;5073555;28;20043;-65
2023/05/23 06:50:40;;;;;;;5.75;1.88;;;11.30;96.20;;;;;;5055639;28;20489;-65
2023/05/23 06:53:06;;;;;;;3.28;1.38;;;11.50;95.90;;;;;;5073747;28;20044;-65
2023/05/23 06:55:32;;;;;;;8.18;2.05;;;12.50;93.70;;;;;;5055416;28;20040;-65
2023/05/23 06:57:59;;;;;;;4.88;1.52;;;12.10;93.30;;;;;;5055764;28;20052;-65
2023/05/23 07:00:25;;;;;;;5.22;1.25;;;11.50;93.30;;;;;;5073462;28;20040;-65
2023/05/23 07:02:50;;;;;;;10.30;2.35;;;11.50;92.90;;;;;;5073216;28;20043;-67
2023/05/23 07:05:16;;;;;;;5.05;1.83;;;11.60;93.60;;;;;;5073442;28;20125;-66
2023/05/23 07:07:42;;;;;;;4.35;1.40;;;11.60;90.10;;;;;;5073156;28;20086;-65
2023/05/23 07:10:09;;;;;;;4.43;1.40;;;11.60;82.50;;;;;;5073106;28;20076;-65
2023/05/23 07:12:35;;;;;;;3.83;1.58;;;11.60;73.90;;;;;;5073320;28;20084;-65
2023/05/23 07:15:00;;;;;;;6.30;1.92;;;11.70;65.50;;;;;;5073338;28;20052;-65
2023/05/23 07:17:28;;;;;;;7.03;1.65;;;11.70;52.70;;;;;;5073265;28;20495;-65
2023/05/23 07:19:54;;;;;;;3.70;1.48;;;11.70;47.80;;;;;;5073030;28;20124;-65
2023/05/23 07:22:20;;;;;;;5.95;1.83;;;11.90;38.60;;;;;;5073270;28;20076;-65
2023/05/23 07:24:46;;;;;;;6.10;1.70;;;12.00;28.50;;;;;;5072900;28;20036;-65
2023/05/23 07:27:11;;;;;;;8.55;1.88;;;12.10;1.00;;;;;;5072842;28;20036;-65
2023/05/23 07:29:37;;;;;;;6.43;1.58;;;12.00;99.90;;;;;;5073002;28;20032;-65
2023/05/23 07:32:02;;;;;;;3.58;1.35;;;12.00;99.90;;;;;;5072753;28;20653;-65
2023/05/23 07:34:29;;;;;;;8.15;1.38;;;12.00;99.90;;;;;;5072951;28;20036;-64
2023/05/23 07:36:55;;;;;;;8.48;1.30;;;12.00;99.90;;;;;;5072787;28;20044;-65
2023/05/23 07:39:21;;;;;;;8.45;1.73;;;11.90;99.90;;;;;;5073245;28;20047;-65
2023/05/23 07:41:50;;;;;;;2.78;1.33;;;12.00;99.90;;;;;;5055050;28;20093;-65
2023/05/23 07:44:17;;;;;;;2.97;1.23;;;12.00;99.90;;;;;;5072777;28;20048;-65
2023/05/23 07:46:43;;;;;;;4.20;1.30;;;12.60;99.90;;;;;;5072168;28;20065;-65
2023/05/23 07:49:08;;;;;;;3.78;1.60;;;12.00;99.90;;;;;;5073127;28;20036;-69
2023/05/23 07:51:35;;;;;;;6.00;1.48;;;12.10;99.90;;;;;;5072769;28;20044;-65
2023/05/23 07:54:00;;;;;;;7.22;1.55;;;12.10;99.90;;;;;;5072749;28;20055;-65
2023/05/23 07:56:26;;;;;;;6.70;1.13;;;12.20;99.90;;;;;;5054755;28;20049;-65
2023/05/23 07:58:52;;;;;;;4.45;1.40;;;12.20;99.90;;;;;;5072777;28;20040;-65
2023/05/23 08:01:18;;;;;;;3.17;1.48;;;12.30;38.10;;;;;;5054462;28;20524;-65
2023/05/23 08:03:43;;;;;;;9.35;1.83;;;12.50;99.90;;;;;;5072280;28;20087;-65
2023/05/23 08:06:09;;;;;;;3.40;1.35;;;12.30;99.90;;;;;;5072395;28;20041;-65
2023/05/23 08:08:35;;;;;;;3.63;1.15;;;12.30;4.20;;;;;;5072298;28;20040;-65
2023/05/23 08:11:01;;;;;;;5.30;1.50;;;12.10;3.50;;;;;;5072585;28;20076;-65
2023/05/23 08:13:27;;;;;;;6.90;1.40;;;12.40;99.90;;;;;;5072641;28;20044;-65
2023/05/23 08:15:53;;;;;;;7.20;1.38;;;12.40;99.90;;;;;;5072378;28;20040;-65
2023/05/23 08:18:18;;;;;;;4.65;1.40;;;12.00;99.90;;;;;;5072278;28;20032;-65
2023/05/23 08:20:44;;;;;;;5.68;1.33;;;12.40;99.90;;;;;;5072585;28;20069;-65
2023/05/23 08:23:11;;;;;;;6.72;1.80;;;12.60;99.90;;;;;;5072300;28;20547;-65
2023/05/23 08:25:37;;;;;;;3.67;1.20;;;12.90;99.90;;;;;;5054401;28;20127;-65
2023/05/23 08:28:03;;;;;;;7.32;1.65;;;13.70;99.90;;;;;;5072586;28;20478;-65
2023/05/23 08:30:29;;;;;;;8.80;1.77;;;13.00;1.00;;;;;;5072504;28;20097;-65
2023/05/23 08:32:55;;;;;;;3.20;1.20;;;13.20;10.80;;;;;;5054330;28;20076;-67
2023/05/23 08:35:21;;;;;;;3.45;1.10;;;13.20;99.90;;;;;;5072412;28;20072;-66
2023/05/23 08:37:48;;;;;;;3.22;1.08;;;13.00;99.90;;;;;;5072396;28;20068;-65
2023/05/23 08:40:25;;;;;;;12.75;1.55;;;13.00;99.90;;;;;;5072137;28;20115;-65
2023/05/23 08:42:51;;;;;;;6.75;1.60;;;13.10;1.00;;;;;;5072437;28;20037;-65
2023/05/23 08:45:17;;;;;;;10.48;1.30;;;13.20;99.90;;;;;;5072400;28;20447;-65
2023/05/23 08:47:44;;;;;;;3.58;1.42;;;13.30;1.00;;;;;;5072039;28;20106;-65
2023/05/23 08:50:17;;;;;;;8.40;1.40;;;13.50;99.90;;;;;;5054190;28;20044;-65
2023/05/23 08:52:52;;;;;;;3.65;1.55;;;13.50;99.90;;;;;;5072364;28;20044;-65
2023/05/23 08:55:19;;;;;;;5.97;1.30;;;13.60;99.90;;;;;;5072192;28;20419;-65
2023/05/23 08:57:45;;;;;;;3.65;1.25;;;13.80;99.90;;;;;;5074468;28;20040;-65
2023/05/23 09:00:15;;;;;;;5.95;1.30;;;14.30;99.90;;;;;;5075887;28;20032;-65
2023/05/23 09:02:44;;;;;;;7.28;1.85;;;14.00;99.90;;;;;;5076003;28;20032;-65
2023/05/23 09:05:10;;;;;;;8.18;1.77;;;14.10;99.90;;;;;;5057688;28;20044;-65
2023/05/23 09:07:36;;;;;;;8.30;1.50;;;13.80;99.90;;;;;;5057933;28;20072;-65
2023/05/23 09:10:06;;;;;;;3.20;1.42;;;13.80;99.90;;;;;;5075752;28;20125;-65
2023/05/23 09:12:33;;;;;;;8.45;1.52;;;13.90;99.90;;;;;;5075365;28;20071;-65
2023/05/23 09:14:59;;;;;;;4.97;1.25;;;14.00;99.90;;;;;;5075669;28;20090;-65
2023/05/23 09:17:24;;;;;;;5.75;1.67;;;14.10;99.90;;;;;;5057607;28;20044;-65
2023/05/23 09:19:50;;;;;;;5.00;1.80;;;14.40;99.90;;;;;;5057635;28;20477;-65
2023/05/23 09:22:22;;;;;;;3.75;1.52;;;14.50;99.90;;;;;;5075393;28;20495;-65
2023/05/23 09:24:49;;;;;;;3.78;1.73;;;14.10;99.90;;;;;;5075234;28;20048;-66
2023/05/23 09:27:15;;;;;;;7.13;1.80;;;15.40;99.90;;;;;;5075163;28;20048;-65
2023/05/23 09:29:41;;;;;;;9.80;1.85;;;14.40;99.90;;;;;;5075402;28;20040;-65
2023/05/23 09:32:11;;;;;;;3.80;1.02;;;14.30;99.90;;;;;;5075259;28;20037;-65
2023/05/23 09:34:40;;;;;;;4.30;1.63;;;14.30;99.90;;;;;;5075165;28;20048;-65
2023/05/23 09:37:07;;;;;;;4.30;1.38;;;14.20;99.90;;;;;;5074734;28;20036;-65
2023/05/23 09:39:36;;;;;;;4.70;1.50;;;14.90;99.90;;;;;;5075696;28;20037;-65
2023/05/23 09:42:02;;;;;;;5.53;1.38;;;14.40;99.90;;;;;;5074767;28;20028;-65
2023/05/23 09:44:28;;;;;;;3.40;1.02;;;14.50;99.90;;;;;;5074688;28;20040;-65
2023/05/23 09:46:53;;;;;;;6.25;1.50;;;14.50;99.90;;;;;;5056715;28;20044;-65
2023/05/23 09:49:21;;;;;;;5.05;1.88;;;14.50;99.90;;;;;;5056654;28;20082;-65
2023/05/23 09:52:00;;;;;;;2.85;1.33;;;14.30;99.90;;;;;;5074951;28;20064;-65
2023/05/23 09:54:25;;;;;;;5.15;1.33;;;14.20;99.90;;;;;;5074883;28;20033;-65
2023/05/23 09:56:52;;;;;;;4.10;1.50;;;14.30;99.90;;;;;;5074727;28;20048;-65
2023/05/23 09:59:23;;;;;;;2.85;1.45;;;14.30;99.90;;;;;;5074726;28;20060;-65
2023/05/23 10:01:51;;;;;;;2.63;1.23;;;14.40;99.90;;;;;;5056550;28;20075;-66
2023/05/23 10:04:22;;;;;;;5.88;1.30;;;14.30;99.90;;;;;;5074705;28;20040;-65
2023/05/23 10:06:58;;;;;;;6.63;1.65;;;14.30;99.90;;;;;;5074670;28;20044;-64
2023/05/23 10:09:27;;;;;;;6.53;1.50;;;15.00;99.90;;;;;;5073644;28;20055;-66
2023/05/23 10:12:32;;;;;;;11.18;1.55;;;14.10;99.90;;;;;;5074393;28;20063;-65
2023/05/23 10:15:03;;;;;;;3.15;1.45;;;14.10;99.90;;;;;;5042223;28;20554;-66
2023/05/23 10:17:51;;;;;;;6.82;1.10;;;14.10;99.90;;;;;;5074134;28;20044;-66
2023/05/23 10:20:20;;;;;;;4.43;1.52;;;14.10;99.90;;;;;;5074057;28;20086;-64
2023/05/23 10:22:48;;;;;;;8.90;1.77;;;14.10;99.90;;;;;;5074285;28;20090;-64
2023/05/23 10:25:15;;;;;;;4.15;0.95;;;14.10;99.90;;;;;;5056174;28;20048;-65
2023/05/23 10:27:42;;;;;;;7.97;1.30;;;14.70;99.90;;;;;;5072805;28;20044;-65
2023/05/23 10:30:08;;;;;;;3.42;1.50;;;14.40;99.90;;;;;;5074119;28;20048;-65
2023/05/23 10:32:37;;;;;;;3.95;1.23;;;14.50;99.90;;;;;;5074078;28;20511;-65
2023/05/23 10:35:24;;;;;;;9.30;1.45;;;14.40;99.90;;;;;;5073943;28;20103;-65
2023/05/23 10:38:20;;;;;;;8.55;1.75;;;14.20;99.90;;;;;;5073978;28;20492;-65
2023/05/23 10:40:53;;;;;;;5.05;1.25;;;14.30;99.90;;;;;;5039285;28;20047;-65
2023/05/23 10:43:31;;;;;;;5.40;1.55;;;14.20;99.90;;;;;;5055935;28;20052;-66
2023/05/23 10:45:56;;;;;;;1.88;1.00;;;14.80;99.90;;;;;;5073741;28;20127;-66
2023/05/23 10:48:33;;;;;;;4.60;1.40;;;14.40;99.90;;;;;;5073698;28;20519;-65
2023/05/23 10:51:06;;;;;;;4.13;1.30;;;14.40;99.90;;;;;;5055918;28;20043;-67
2023/05/23 10:53:38;;;;;;;4.03;1.23;;;14.30;99.90;;;;;;5073969;28;20044;-66
2023/05/23 10:56:06;;;;;;;4.95;1.45;;;14.40;99.90;;;;;;5073586;28;20097;-66
2023/05/23 10:58:33;;;;;;;5.78;1.42;;;14.40;99.90;;;;;;5055708;28;20044;-66
2023/05/23 11:01:01;;;;;;;4.05;1.10;;;14.50;99.90;;;;;;5072028;28;20083;-66
2023/05/23 11:03:35;;;;;;;7.97;1.00;;;14.30;99.90;;;;;;5073472;28;20044;-66
2023/05/23 11:06:04;;;;;;;5.60;1.10;;;14.40;99.90;;;;;;5073563;28;20087;-67
2023/05/23 11:08:41;;;;;;;5.90;1.20;;;14.40;99.90;;;;;;5073364;28;20044;-66
2023/05/23 11:11:07;;;;;;;5.90;1.17;;;14.60;99.90;;;;;;5072953;28;20048;-66
2023/05/23 11:13:51;;;;;;;4.38;0.90;;;14.60;99.90;;;;;;5073139;28;20385;-66
2023/05/23 11:16:48;;;;;;;4.70;0.90;;;14.70;99.90;;;;;;5055016;28;20075;-66
2023/05/23 11:19:24;;;;;;;3.13;1.23;;;14.70;99.90;;;;;;5071387;28;20052;-66
2023/05/23 11:21:55;;;;;;;5.35;0.93;;;14.60;99.90;;;;;;5072965;28;20123;-66
2023/05/23 11:24:22;;;;;;;2.25;1.05;;;14.60;99.90;;;;;;5073094;28;20068;-66
2023/05/23 11:26:59;;;;;;;5.22;1.52;;;14.60;99.90;;;;;;5055017;28;20040;-66
2023/05/23 11:29:31;;;;;;;4.28;1.00;;;14.90;99.90;;;;;;5054984;28;20040;-66
2023/05/23 11:31:56;;;;;;;6.32;1.70;;;14.80;99.90;;;;;;5055143;28;20452;-65
2023/05/23 11:34:24;;;;;;;4.00;1.30;;;14.80;99.90;;;;;;5073230;28;20040;-65
2023/05/23 11:36:54;;;;;;;3.05;0.98;;;14.80;99.70;;;;;;5054965;28;20049;-65
2023/05/23 11:39:20;;;;;;;2.25;1.02;;;14.80;99.90;;;;;;5072902;28;20036;-65
2023/05/23 11:42:02;;;;;;;5.68;1.25;;;14.80;99.90;;;;;;5055140;28;20037;-66
2023/05/23 11:44:29;;;;;;;3.42;1.25;;;14.80;97.70;;;;;;5054808;28;20043;-66
2023/05/23 11:47:03;;;;;;;3.13;1.20;;;14.90;99.90;;;;;;5055007;28;20037;-66
2023/05/23 11:49:30;;;;;;;3.25;1.00;;;14.90;95.30;;;;;;5054907;28;20051;-66
2023/05/23 11:51:58;;;;;;;2.45;0.82;;;14.90;97.20;;;;;;5072982;28;20036;-66
2023/05/23 11:54:25;;;;;;;3.72;1.25;;;14.90;97.40;;;;;;5072542;28;20047;-67
2023/05/23 11:56:51;;;;;;;4.07;0.90;;;14.70;98.30;;;;;;5054557;28;20045;-66
2023/05/23 11:59:17;;;;;;;6.22;1.30;;;14.60;96.50;;;;;;5072818;28;20044;-67
2023/05/23 12:01:43;;;;;;;7.25;1.33;;;14.80;98.10;;;;;;5072806;28;20039;-66
2023/05/23 12:04:12;;;;;;;6.78;1.38;;;14.70;96.30;;;;;;5072554;28;20070;-66
2023/05/23 12:06:40;;;;;;;5.28;1.20;;;15.50;91.70;;;;;;5054767;28;20504;-66
2023/05/23 12:09:06;;;;;;;4.18;1.20;;;15.20;91.00;;;;;;5072611;28;20055;-66
2023/05/23 12:11:33;;;;;;;2.75;1.33;;;14.50;91.10;;;;;;5072456;28;20087;-66
2023/05/23 12:14:01;;;;;;;4.15;1.15;;;14.40;91.60;;;;;;5054788;28;20080;-66
2023/05/23 12:16:30;;;;;;;2.47;1.10;;;14.50;93.10;;;;;;5072614;28;20484;-66
2023/05/23 12:18:57;;;;;;;4.68;1.08;;;14.90;96.00;;;;;;5072672;28;20033;-66
2023/05/23 12:21:25;;;;;;;4.05;1.30;;;14.90;92.90;;;;;;5072266;28;20049;-66
2023/05/23 12:23:51;;;;;;;5.10;0.95;;;14.90;91.20;;;;;;5054647;28;20396;-66
2023/05/23 12:26:17;;;;;;;4.53;1.35;;;15.10;96.60;;;;;;5072574;28;20044;-66
2023/05/23 12:28:44;;;;;;;5.03;1.10;;;15.20;92.80;;;;;;5072574;28;20035;-66
2023/05/23 12:31:16;;;;;;;4.75;1.30;;;15.10;90.90;;;;;;5072662;28;20041;-66
2023/05/23 12:33:43;;;;;;;2.92;1.15;;;14.90;89.50;;;;;;5076513;28;20047;-66
2023/05/23 12:36:10;;;;;;;4.53;1.50;;;14.90;91.20;;;;;;5076089;28;20511;-66
2023/05/23 12:38:36;;;;;;;4.70;1.13;;;14.90;90.90;;;;;;5076359;28;20033;-66
2023/05/23 12:41:15;;;;;;;5.70;1.00;;;15.50;84.40;;;;;;5076300;28;20443;-66
2023/05/23 12:43:50;;;;;;;3.35;1.10;;;15.00;86.50;;;;;;5058023;28;20037;-66
2023/05/23 12:46:15;;;;;;;5.13;1.30;;;14.90;82.60;;;;;;5076236;28;20399;-66
2023/05/23 12:48:41;;;;;;;1.38;0.80;;;15.00;81.30;;;;;;5076184;28;20036;-66